Time;durP1;ratioP1;P1;durP2;ratioP2;P2;SDS_P1;SDS_P2;PMS_P1;PMS_P2;Temp;Humidity;BMP_temperature;BMP_pressure;BME280_temperature;BME280_humidity;BME280_pressure;Samples;Min_cycle;Max_cycle;Signal;HPM_P1;HPM_P2
2022/03/18 00:00:24;;;;;;;14.07;7.50;;;7.50;67.50;;;;;;5057855;28;20184;-86
2022/03/18 00:02:52;;;;;;;18.25;7.30;;;7.50;68.10;;;;;;5039786;28;20435;-85
2022/03/18 00:05:19;;;;;;;11.15;6.97;;;7.40;68.40;;;;;;5058986;28;20201;-85
2022/03/18 00:07:45;;;;;;;11.80;7.22;;;7.30;68.80;;;;;;5060260;28;20648;-85
2022/03/18 00:10:12;;;;;;;23.48;8.32;;;7.20;69.20;;;;;;5024233;28;20182;-86
2022/03/18 00:12:37;;;;;;;13.32;6.65;;;7.20;69.60;;;;;;5020105;28;20178;-87
2022/03/18 00:15:08;;;;;;;15.50;7.60;;;7.30;69.70;;;;;;5021196;28;20280;-87
2022/03/18 00:17:34;;;;;;;19.35;7.53;;;7.20;69.70;;;;;;5021367;28;20266;-86
2022/03/18 00:20:00;;;;;;;20.95;7.32;;;7.10;70.00;;;;;;5019886;28;20189;-87
2022/03/18 00:22:26;;;;;;;16.63;7.67;;;7.10;70.20;;;;;;5019379;28;20178;-87
2022/03/18 00:24:52;;;;;;;15.90;7.10;;;7.10;70.40;;;;;;5018626;28;20339;-87
2022/03/18 00:27:17;;;;;;;17.47;8.30;;;7.00;70.50;;;;;;5019079;28;20201;-87
2022/03/18 00:29:43;;;;;;;15.97;7.90;;;7.10;70.80;;;;;;5019113;28;20443;-87
2022/03/18 00:32:10;;;;;;;11.23;6.90;;;7.00;70.90;;;;;;5018476;28;20178;-88
2022/03/18 00:34:36;;;;;;;18.92;6.68;;;7.10;71.00;;;;;;5019298;28;20178;-87
2022/03/18 00:37:02;;;;;;;14.93;8.37;;;7.10;70.90;;;;;;5019761;28;20205;-87
2022/03/18 00:39:27;;;;;;;16.70;6.93;;;7.20;70.80;;;;;;5019541;28;20429;-88
2022/03/18 00:41:53;;;;;;;9.97;7.53;;;7.50;70.40;;;;;;5020223;28;20432;-87
2022/03/18 00:44:20;;;;;;;12.23;6.73;;;7.40;69.80;;;;;;5021994;28;20212;-87
2022/03/18 00:46:46;;;;;;;11.48;6.60;;;7.30;70.10;;;;;;5027958;28;20487;-87
2022/03/18 00:52:05;;;;;;;16.02;7.03;;;7.50;70.20;;;;;;5037772;28;20177;-87
2022/03/18 00:54:37;;;;;;;19.65;6.00;;;7.80;69.40;;;;;;5019580;28;20588;-87
2022/03/18 00:57:04;;;;;;;12.60;7.53;;;7.90;69.00;;;;;;5035272;28;20780;-88
2022/03/18 00:59:31;;;;;;;10.98;6.75;;;7.90;68.70;;;;;;5034321;28;20177;-87
2022/03/18 01:01:57;;;;;;;13.68;6.50;;;7.80;68.50;;;;;;5019745;28;20182;-88
2022/03/18 01:04:24;;;;;;;13.38;6.85;;;7.90;68.40;;;;;;5031098;28;20216;-88
2022/03/18 01:06:52;;;;;;;8.55;6.22;;;8.00;68.20;;;;;;5027725;28;20194;-87
2022/03/18 01:09:19;;;;;;;15.55;7.15;;;8.10;68.00;;;;;;5018024;28;20185;-87
2022/03/18 01:11:45;;;;;;;14.52;6.55;;;8.10;67.40;;;;;;5018893;28;20177;-87
2022/03/18 01:14:10;;;;;;;13.60;7.00;;;7.90;67.40;;;;;;5018359;28;20186;-87
2022/03/18 01:16:36;;;;;;;11.63;5.67;;;7.90;67.70;;;;;;5036190;28;20193;-87
2022/03/18 01:19:02;;;;;;;19.73;7.87;;;7.80;67.90;;;;;;5020448;28;20186;-87
2022/03/18 01:21:28;;;;;;;10.77;6.25;;;7.40;68.20;;;;;;5043257;28;20727;-87
2022/03/18 01:23:53;;;;;;;17.77;7.80;;;7.10;69.10;;;;;;5026784;28;20186;-87
2022/03/18 01:26:19;;;;;;;17.43;9.33;;;7.10;69.70;;;;;;5019736;28;20198;-87
2022/03/18 01:28:45;;;;;;;13.90;6.37;;;7.40;69.90;;;;;;5020271;28;20673;-87
2022/03/18 01:31:11;;;;;;;16.33;7.60;;;7.60;70.00;;;;;;5023469;28;20181;-86
2022/03/18 01:33:37;;;;;;;15.83;7.30;;;7.70;69.00;;;;;;5028814;28;20236;-86
2022/03/18 01:36:06;;;;;;;13.77;6.63;;;7.60;68.80;;;;;;5033388;28;20206;-87
2022/03/18 01:38:32;;;;;;;10.30;6.75;;;7.60;68.90;;;;;;5050033;28;20193;-87
2022/03/18 01:40:58;;;;;;;14.40;7.17;;;7.60;68.80;;;;;;5027294;28;20182;-87
2022/03/18 01:43:24;;;;;;;11.67;7.50;;;7.50;68.80;;;;;;5040653;28;20177;-86
2022/03/18 01:45:51;;;;;;;14.48;7.05;;;7.60;69.00;;;;;;5044749;28;20456;-88
2022/03/18 01:48:17;;;;;;;18.67;7.68;;;7.60;69.00;;;;;;5039855;28;20197;-88
2022/03/18 01:50:44;;;;;;;14.98;7.72;;;7.50;68.90;;;;;;5039716;28;20166;-86
2022/03/18 01:53:10;;;;;;;12.45;7.13;;;7.60;68.90;;;;;;5037481;28;20184;-85
2022/03/18 01:55:36;;;;;;;18.40;7.37;;;7.60;68.80;;;;;;5028690;28;20259;-87
2022/03/18 01:58:04;;;;;;;25.60;7.05;;;7.40;68.80;;;;;;5030551;28;20428;-86
2022/03/18 02:00:30;;;;;;;11.35;6.95;;;7.20;69.00;;;;;;5044318;28;20257;-86
2022/03/18 02:02:57;;;;;;;21.63;7.88;;;7.00;69.40;;;;;;5042174;28;20233;-86
2022/03/18 02:05:24;;;;;;;15.57;7.97;;;6.90;69.90;;;;;;5049679;28;20213;-86
2022/03/18 02:07:50;;;;;;;10.88;6.38;;;6.80;70.20;;;;;;5029247;28;20174;-85
2022/03/18 02:10:15;;;;;;;23.27;7.80;;;6.80;70.40;;;;;;5036884;28;20653;-87
2022/03/18 02:12:41;;;;;;;12.43;6.80;;;7.00;70.40;;;;;;5039465;28;20420;-87
2022/03/18 02:15:09;;;;;;;18.77;7.73;;;7.20;70.20;;;;;;5037735;28;20215;-87
2022/03/18 02:17:35;;;;;;;19.90;9.82;;;7.10;70.00;;;;;;5037356;28;20490;-87
2022/03/18 02:20:00;;;;;;;14.03;7.40;;;7.20;69.80;;;;;;5037350;28;20276;-87
2022/03/18 02:22:28;;;;;;;13.90;6.20;;;7.30;69.70;;;;;;5038569;28;20426;-86
2022/03/18 02:24:55;;;;;;;10.82;6.43;;;7.40;69.30;;;;;;5036994;28;20216;-87
2022/03/18 02:27:21;;;;;;;10.55;6.35;;;7.40;69.10;;;;;;5037105;28;20209;-87
2022/03/18 02:29:48;;;;;;;11.10;6.43;;;7.40;68.80;;;;;;5036656;28;20178;-87
2022/03/18 02:32:14;;;;;;;13.55;6.95;;;7.60;68.20;;;;;;5038165;28;20177;-87
2022/03/18 02:34:41;;;;;;;16.83;7.10;;;7.60;67.80;;;;;;5036708;28;20181;-86
2022/03/18 02:37:07;;;;;;;12.65;7.20;;;7.40;67.80;;;;;;5036858;28;20202;-87
2022/03/18 02:39:33;;;;;;;18.63;7.95;;;7.30;68.20;;;;;;5037854;28;20186;-87
2022/03/18 02:41:59;;;;;;;11.87;7.27;;;7.30;68.30;;;;;;5040753;28;20209;-85
2022/03/18 02:44:25;;;;;;;18.83;7.40;;;7.30;68.30;;;;;;5037639;28;20456;-85
2022/03/18 02:46:51;;;;;;;16.83;7.63;;;7.30;68.50;;;;;;5037322;28;20414;-84
2022/03/18 02:49:25;;;;;;;19.92;8.10;;;7.20;68.50;;;;;;5039067;28;20208;-85
2022/03/18 02:51:52;;;;;;;17.73;8.80;;;7.00;69.50;;;;;;5036179;28;20562;-84
2022/03/18 02:54:17;;;;;;;14.98;8.98;;;6.60;69.50;;;;;;5036478;28;20447;-85
2022/03/18 02:56:43;;;;;;;13.00;6.70;;;6.50;70.20;;;;;;5036922;28;20206;-85
2022/03/18 02:59:09;;;;;;;13.80;7.43;;;6.50;70.50;;;;;;5037071;28;20202;-85
2022/03/18 03:01:39;;;;;;;13.98;7.40;;;6.60;70.40;;;;;;5037262;28;20182;-84
2022/03/18 03:04:05;;;;;;;14.75;7.70;;;6.80;70.40;;;;;;5038036;28;20178;-85
2022/03/18 03:09:18;;;;;;;18.73;7.75;;;6.80;69.70;;;;;;5038788;28;20472;-85
2022/03/18 03:11:44;;;;;;;12.50;6.88;;;6.80;69.60;;;;;;5037349;28;20181;-85
2022/03/18 03:14:16;;;;;;;13.50;8.13;;;6.80;69.70;;;;;;5042612;28;20174;-87
2022/03/18 03:16:42;;;;;;;14.57;7.47;;;6.80;69.80;;;;;;5039161;28;20571;-86
2022/03/18 03:19:08;;;;;;;11.53;7.87;;;6.70;69.90;;;;;;5037320;28;20174;-86
2022/03/18 03:21:34;;;;;;;23.63;8.13;;;6.70;70.00;;;;;;5035631;28;20488;-86
2022/03/18 03:24:01;;;;;;;12.57;8.32;;;6.40;70.50;;;;;;5036076;28;20440;-85
2022/03/18 03:26:27;;;;;;;12.60;8.23;;;6.30;71.40;;;;;;5036204;28;20217;-87
2022/03/18 03:28:53;;;;;;;15.25;7.63;;;6.20;72.10;;;;;;5036115;28;20178;-85
2022/03/18 03:31:19;;;;;;;16.53;7.90;;;6.20;72.50;;;;;;5035772;28;20182;-87
2022/03/18 03:33:45;;;;;;;17.58;7.90;;;6.40;72.60;;;;;;5041297;28;20201;-88
2022/03/18 03:36:11;;;;;;;17.52;8.15;;;6.60;72.20;;;;;;5038253;28;20201;-87
2022/03/18 03:38:37;;;;;;;14.13;7.80;;;6.80;71.70;;;;;;5035218;28;20271;-88
2022/03/18 03:41:04;;;;;;;31.47;7.90;;;6.60;71.40;;;;;;5034646;28;20868;-87
2022/03/18 03:43:30;;;;;;;14.82;7.63;;;6.40;71.70;;;;;;5035743;28;20462;-87
2022/03/18 03:45:56;;;;;;;15.93;8.25;;;6.70;71.80;;;;;;5037217;28;20221;-87
2022/03/18 03:48:22;;;;;;;13.20;7.57;;;6.70;71.60;;;;;;5036403;28;20269;-87
2022/03/18 03:50:48;;;;;;;20.07;8.03;;;6.80;71.20;;;;;;5035806;28;20420;-88
2022/03/18 03:53:13;;;;;;;21.93;8.13;;;6.90;70.90;;;;;;5039940;28;20420;-88
2022/03/18 03:55:40;;;;;;;17.27;8.60;;;6.80;70.70;;;;;;5039335;28;20967;-86
2022/03/18 03:58:07;;;;;;;15.30;8.35;;;6.80;70.60;;;;;;5057999;28;20182;-86
2022/03/18 04:00:36;;;;;;;11.60;9.13;;;6.70;70.70;;;;;;5043257;28;20223;-86
2022/03/18 04:03:03;;;;;;;17.08;6.97;;;6.50;70.80;;;;;;5054724;28;20193;-87
2022/03/18 04:05:30;;;;;;;17.70;7.78;;;6.40;71.40;;;;;;5053489;28;20216;-86
2022/03/18 04:07:56;;;;;;;20.13;8.55;;;6.40;71.70;;;;;;5052469;28;20181;-87
2022/03/18 04:10:22;;;;;;;12.33;8.47;;;6.60;71.70;;;;;;5071522;28;20184;-86
2022/03/18 04:12:48;;;;;;;25.10;8.80;;;6.70;71.60;;;;;;5054553;28;20428;-89
2022/03/18 04:15:13;;;;;;;18.60;8.00;;;6.80;71.20;;;;;;5042513;28;20427;-86
2022/03/18 04:17:44;;;;;;;17.93;8.80;;;6.80;70.80;;;;;;5043011;28;20428;-86
2022/03/18 04:20:13;;;;;;;16.95;7.75;;;6.70;70.70;;;;;;5031735;28;20604;-87
2022/03/18 04:22:39;;;;;;;17.15;9.13;;;6.70;70.70;;;;;;5059170;28;20173;-86
2022/03/18 04:25:06;;;;;;;11.07;7.72;;;6.50;71.00;;;;;;5041183;28;20224;-87
2022/03/18 04:27:32;;;;;;;23.35;9.80;;;6.40;71.30;;;;;;5042409;28;20201;-87
2022/03/18 04:29:58;;;;;;;17.40;8.63;;;6.60;71.60;;;;;;5050830;28;20184;-86
2022/03/18 04:32:35;;;;;;;11.90;7.60;;;6.70;71.40;;;;;;5070105;28;20605;-89
2022/03/18 04:35:00;;;;;;;18.90;9.00;;;6.80;71.00;;;;;;5046338;28;20443;-87
2022/03/18 04:37:26;;;;;;;19.73;9.10;;;6.80;70.80;;;;;;5045388;28;20244;-87
2022/03/18 04:39:52;;;;;;;14.40;8.20;;;6.70;70.80;;;;;;5043083;28;20239;-87
2022/03/18 04:42:18;;;;;;;19.08;11.05;;;6.70;70.90;;;;;;5049905;28;20427;-89
2022/03/18 04:44:44;;;;;;;17.38;9.30;;;6.80;70.60;;;;;;5076210;28;20280;-86
2022/03/18 04:47:10;;;;;;;21.70;8.63;;;6.70;70.60;;;;;;5060669;28;20216;-88
2022/03/18 04:49:36;;;;;;;23.85;9.55;;;6.50;70.80;;;;;;5060482;28;20419;-89
2022/03/18 04:52:03;;;;;;;16.55;9.38;;;6.60;71.10;;;;;;5041273;28;20185;-90
2022/03/18 04:54:29;;;;;;;23.95;8.35;;;6.60;71.10;;;;;;5064955;28;20187;-89
2022/03/18 04:59:40;;;;;;;19.83;9.20;;;6.70;70.80;;;;;;5075558;28;20387;-90
2022/03/18 05:02:06;;;;;;;16.20;8.15;;;6.60;70.70;;;;;;5075301;28;20172;-90
2022/03/18 05:04:32;;;;;;;14.80;9.15;;;6.50;70.80;;;;;;5056573;28;20196;-90
2022/03/18 05:06:58;;;;;;;15.18;8.32;;;6.60;70.30;;;;;;5074712;28;20199;-89
2022/03/18 05:09:25;;;;;;;20.57;9.43;;;6.50;70.30;;;;;;5048147;28;20267;-88
2022/03/18 05:11:51;;;;;;;15.77;8.57;;;6.40;70.30;;;;;;5036934;28;20199;-88
2022/03/18 05:14:17;;;;;;;12.77;6.97;;;6.30;70.40;;;;;;5036948;28;20554;-88
2022/03/18 05:16:43;;;;;;;14.93;9.50;;;6.00;70.50;;;;;;5034486;28;20205;-89
2022/03/18 05:19:09;;;;;;;17.55;7.82;;;5.70;71.20;;;;;;5036708;28;20419;-89
2022/03/18 05:21:36;;;;;;;17.45;8.85;;;5.60;72.00;;;;;;5035040;28;20213;-88
2022/03/18 05:24:02;;;;;;;12.15;8.30;;;5.60;72.50;;;;;;5036671;28;20646;-89
2022/03/18 05:26:28;;;;;;;15.90;9.43;;;5.90;72.60;;;;;;5043725;28;20222;-88
2022/03/18 05:28:54;;;;;;;24.30;9.13;;;5.90;72.30;;;;;;5054207;28;20203;-88
2022/03/18 05:31:20;;;;;;;14.63;9.27;;;6.00;72.10;;;;;;5051467;28;20458;-88
2022/03/18 05:33:45;;;;;;;15.30;8.90;;;6.10;72.00;;;;;;5035622;28;20213;-88
2022/03/18 05:36:11;;;;;;;14.17;7.77;;;6.10;71.90;;;;;;5041107;28;20261;-90
2022/03/18 05:38:37;;;;;;;15.55;9.75;;;6.20;71.80;;;;;;5047896;28;20192;-88
2022/03/18 05:41:03;;;;;;;16.65;10.23;;;6.20;71.70;;;;;;5045609;28;20181;-89
2022/03/18 05:43:29;;;;;;;20.77;9.70;;;6.30;71.60;;;;;;5040079;28;20174;-90
2022/03/18 05:45:54;;;;;;;15.90;10.90;;;6.30;71.40;;;;;;5038331;28;20220;-89
2022/03/18 05:48:20;;;;;;;16.73;9.53;;;6.30;71.30;;;;;;5037739;28;20793;-89
2022/03/18 05:50:46;;;;;;;14.83;8.90;;;6.30;71.30;;;;;;5037309;28;20178;-89
2022/03/18 05:53:12;;;;;;;17.67;10.30;;;6.30;71.30;;;;;;5041203;28;20957;-89
2022/03/18 05:58:22;;;;;;;17.23;8.68;;;6.20;71.70;;;;;;5080830;28;20397;-87
2022/03/18 06:00:48;;;;;;;18.83;9.67;;;6.20;71.80;;;;;;5084735;28;20263;-87
2022/03/18 06:03:14;;;;;;;14.82;8.50;;;6.20;71.90;;;;;;5085929;28;20411;-87
2022/03/18 06:05:42;;;;;;;17.40;9.60;;;6.30;71.80;;;;;;5063907;28;20269;-87
2022/03/18 06:13:38;;;;;;;16.15;8.77;;;6.30;71.80;;;;;;5042170;28;20714;-87
2022/03/18 06:16:03;;;;;;;11.73;9.00;;;6.40;72.00;;;;;;5021035;28;20269;-88
2022/03/18 06:18:29;;;;;;;19.93;8.80;;;6.80;72.20;;;;;;5004958;28;20467;-87
2022/03/18 06:20:59;;;;;;;21.50;8.50;;;7.50;72.00;;;;;;5023056;28;20442;-88
2022/03/18 06:23:26;;;;;;;11.98;7.50;;;8.10;70.10;;;;;;5037757;28;20186;-88
2022/03/18 06:25:53;;;;;;;15.35;7.80;;;8.60;66.50;;;;;;5032393;28;20700;-88
2022/03/18 06:28:19;;;;;;;12.20;8.25;;;9.20;64.60;;;;;;5040471;28;20169;-88
2022/03/18 06:30:50;;;;;;;19.43;8.30;;;9.90;63.20;;;;;;5041018;28;20211;-87
2022/03/18 06:33:16;;;;;;;9.15;6.93;;;10.30;61.20;;;;;;5039631;28;20215;-88
2022/03/18 06:35:41;;;;;;;16.83;7.33;;;10.50;59.70;;;;;;5039392;28;20288;-88
2022/03/18 06:38:08;;;;;;;13.87;7.13;;;10.40;59.00;;;;;;5039950;28;21017;-88
2022/03/18 06:40:33;;;;;;;11.68;8.18;;;10.40;58.20;;;;;;5040318;28;20536;-88
2022/03/18 06:42:59;;;;;;;18.13;8.10;;;10.20;57.80;;;;;;5040988;28;20235;-88
2022/03/18 06:45:25;;;;;;;12.23;7.87;;;10.00;58.00;;;;;;5056779;28;20552;-88
2022/03/18 06:47:51;;;;;;;13.23;7.85;;;9.80;58.20;;;;;;5039717;28;20231;-88
2022/03/18 06:50:16;;;;;;;22.03;8.67;;;9.50;58.60;;;;;;5039947;28;20268;-88
2022/03/18 06:52:42;;;;;;;20.93;7.50;;;9.30;59.20;;;;;;5051868;28;20178;-88
2022/03/18 06:55:08;;;;;;;14.33;8.43;;;9.00;59.80;;;;;;5072754;28;20522;-87
2022/03/18 06:57:34;;;;;;;11.75;7.82;;;8.70;60.70;;;;;;5052706;28;20200;-87
2022/03/18 07:00:00;;;;;;;16.63;7.33;;;8.50;61.60;;;;;;5032598;28;20200;-87
2022/03/18 07:02:26;;;;;;;21.27;10.10;;;8.20;62.50;;;;;;5051071;28;20264;-88
2022/03/18 07:04:52;;;;;;;26.25;8.88;;;8.00;63.30;;;;;;5039475;28;20229;-88
2022/03/18 07:07:18;;;;;;;18.35;8.65;;;8.00;63.70;;;;;;5035823;28;20201;-88
2022/03/18 07:09:43;;;;;;;17.77;7.90;;;7.90;64.10;;;;;;5039243;28;20169;-88
2022/03/18 07:12:09;;;;;;;8.70;7.07;;;7.80;64.30;;;;;;5039643;28;20205;-88
2022/03/18 07:14:44;;;;;;;17.17;7.60;;;7.80;64.70;;;;;;5040186;28;20177;-87
2022/03/18 07:19:54;;;;;;;15.90;8.55;;;7.60;65.50;;;;;;5057346;28;20210;-88
2022/03/18 07:22:20;;;;;;;23.00;8.70;;;7.40;66.10;;;;;;5041715;28;20272;-88
2022/03/18 07:24:47;;;;;;;15.45;7.55;;;7.50;66.40;;;;;;5051500;28;20212;-87
2022/03/18 07:27:12;;;;;;;19.75;8.40;;;7.50;66.50;;;;;;5054443;28;20201;-88
2022/03/18 07:29:40;;;;;;;19.52;7.60;;;7.60;66.40;;;;;;5068253;28;20161;-87
2022/03/18 07:32:06;;;;;;;16.65;7.00;;;7.70;66.50;;;;;;5048185;28;20181;-88
2022/03/18 07:34:32;;;;;;;15.40;7.32;;;7.40;66.60;;;;;;5044751;28;20207;-88
2022/03/18 07:36:58;;;;;;;11.20;7.20;;;7.50;67.20;;;;;;5066972;28;20216;-88
2022/03/18 07:39:23;;;;;;;18.03;6.70;;;7.60;66.90;;;;;;5070220;28;20422;-87
2022/03/18 07:41:49;;;;;;;21.07;7.60;;;7.80;66.60;;;;;;5055817;28;20169;-88
2022/03/18 07:44:15;;;;;;;17.10;7.50;;;7.90;66.30;;;;;;5044287;28;20189;-87
2022/03/18 07:46:41;;;;;;;12.77;7.70;;;8.00;66.00;;;;;;5058634;28;20216;-87
2022/03/18 07:49:06;;;;;;;10.90;6.53;;;8.00;66.00;;;;;;5045161;28;20447;-87
2022/03/18 07:51:32;;;;;;;17.13;7.87;;;8.10;65.80;;;;;;5057262;28;20412;-88
2022/03/18 07:53:58;;;;;;;15.70;6.63;;;8.30;65.50;;;;;;5039036;28;20199;-88
2022/03/18 07:56:24;;;;;;;13.63;6.50;;;8.30;65.20;;;;;;5039197;28;20212;-88
2022/03/18 07:58:50;;;;;;;9.67;5.43;;;8.20;64.80;;;;;;5038665;28;20626;-88
2022/03/18 08:01:16;;;;;;;15.17;6.33;;;8.20;64.80;;;;;;5038940;28;20514;-86
2022/03/18 08:03:42;;;;;;;9.20;6.10;;;8.40;64.90;;;;;;5038480;28;20419;-86
2022/03/18 08:06:07;;;;;;;18.63;6.80;;;8.40;64.70;;;;;;5032116;28;20631;-86
2022/03/18 08:08:33;;;;;;;13.80;6.40;;;8.50;64.60;;;;;;5021664;28;20827;-86
2022/03/18 08:10:59;;;;;;;11.70;5.38;;;8.40;64.30;;;;;;5039806;28;20943;-86
2022/03/18 08:13:25;;;;;;;13.82;8.15;;;8.40;64.40;;;;;;5040696;28;20547;-86
2022/03/18 08:15:52;;;;;;;12.98;6.47;;;8.50;64.60;;;;;;5045436;28;20197;-85
2022/03/18 08:18:19;;;;;;;13.75;6.07;;;8.70;64.50;;;;;;5047224;28;20653;-86
2022/03/18 08:20:50;;;;;;;10.88;6.10;;;8.80;64.60;;;;;;5046161;28;20177;-87
2022/03/18 08:23:16;;;;;;;8.98;5.75;;;8.90;64.10;;;;;;5038718;28;20203;-87
2022/03/18 08:25:42;;;;;;;13.57;5.93;;;9.00;63.70;;;;;;5039298;28;20208;-87
2022/03/18 08:28:08;;;;;;;9.15;5.80;;;9.00;63.30;;;;;;5059881;28;20604;-87
2022/03/18 08:30:35;;;;;;;16.15;6.20;;;9.20;63.10;;;;;;5056812;28;20177;-87
2022/03/18 08:33:01;;;;;;;8.40;4.80;;;9.20;62.60;;;;;;5040206;28;20181;-86
2022/03/18 08:35:27;;;;;;;12.25;5.35;;;9.20;62.00;;;;;;5038833;28;20177;-86
2022/03/18 08:37:56;;;;;;;8.88;5.75;;;9.30;61.80;;;;;;5039725;28;20212;-86
2022/03/18 08:40:27;;;;;;;14.90;6.00;;;9.30;61.50;;;;;;5037412;28;20268;-87
2022/03/18 08:42:54;;;;;;;10.57;5.20;;;9.30;61.10;;;;;;5036277;28;20522;-86
2022/03/18 08:45:20;;;;;;;11.20;3.85;;;9.30;60.90;;;;;;5037905;28;20232;-87
2022/03/18 08:47:46;;;;;;;8.15;4.85;;;9.10;60.70;;;;;;5037822;28;20207;-86
2022/03/18 08:50:13;;;;;;;8.70;4.35;;;9.20;61.10;;;;;;5055474;28;20173;-85
2022/03/18 08:52:40;;;;;;;17.67;6.72;;;9.30;60.70;;;;;;5038118;28;20551;-85
2022/03/18 08:55:07;;;;;;;9.57;5.40;;;9.40;60.80;;;;;;5039077;28;20205;-86
2022/03/18 08:57:36;;;;;;;10.82;5.88;;;9.70;60.40;;;;;;5057597;28;20334;-90
2022/03/18 09:00:05;;;;;;;18.67;5.00;;;9.70;59.50;;;;;;5041772;28;20181;-85
2022/03/18 09:02:31;;;;;;;14.98;5.07;;;9.80;59.20;;;;;;5048541;28;20177;-85
2022/03/18 09:04:56;;;;;;;11.67;5.50;;;9.90;58.30;;;;;;5046171;28;20216;-85
2022/03/18 09:07:22;;;;;;;9.90;4.30;;;9.90;58.00;;;;;;5040158;28;20194;-87
2022/03/18 09:09:48;;;;;;;8.93;4.30;;;9.90;57.50;;;;;;5037233;28;20170;-87
2022/03/18 09:12:17;;;;;;;10.33;4.57;;;10.20;57.50;;;;;;5034547;28;20177;-87
2022/03/18 09:14:44;;;;;;;13.43;5.05;;;10.20;56.70;;;;;;5033646;28;20189;-87
2022/03/18 09:17:10;;;;;;;9.32;5.32;;;10.30;56.40;;;;;;5035607;28;20217;-87
2022/03/18 09:19:37;;;;;;;9.40;5.13;;;10.50;56.20;;;;;;5057733;28;20176;-88
2022/03/18 09:22:08;;;;;;;6.50;3.90;;;10.50;55.30;;;;;;5056647;28;20192;-87
2022/03/18 09:24:37;;;;;;;10.60;4.28;;;10.40;54.40;;;;;;5037007;28;20257;-86
2022/03/18 09:27:04;;;;;;;13.68;4.40;;;10.50;54.00;;;;;;5055225;28;20243;-87
2022/03/18 09:29:30;;;;;;;12.45;4.10;;;10.70;53.70;;;;;;5038725;28;20177;-88
2022/03/18 09:31:56;;;;;;;12.05;4.75;;;10.90;53.10;;;;;;5038463;28;20641;-88
2022/03/18 09:34:24;;;;;;;9.23;3.53;;;10.90;51.10;;;;;;5039360;28;20184;-88
2022/03/18 09:36:52;;;;;;;7.22;4.03;;;10.90;50.20;;;;;;5062931;28;20200;-88
2022/03/18 09:39:19;;;;;;;7.10;3.97;;;11.00;50.30;;;;;;5050634;28;20203;-87
2022/03/18 09:41:45;;;;;;;4.47;3.40;;;11.10;49.50;;;;;;5052871;28;20177;-88
2022/03/18 09:44:10;;;;;;;9.30;4.00;;;11.10;49.10;;;;;;5045863;28;20176;-88
2022/03/18 09:46:37;;;;;;;10.77;3.60;;;11.20;48.80;;;;;;5037816;28;20227;-88
2022/03/18 09:49:11;;;;;;;7.50;3.58;;;11.20;48.70;;;;;;5037709;28;20288;-87
2022/03/18 09:51:40;;;;;;;4.93;3.03;;;11.20;48.20;;;;;;5038224;28;20173;-88
2022/03/18 09:54:07;;;;;;;6.15;3.08;;;11.40;48.10;;;;;;5056005;28;20738;-87
2022/03/18 09:56:40;;;;;;;7.93;2.78;;;11.40;47.50;;;;;;5056211;28;20280;-88
2022/03/18 09:59:06;;;;;;;8.00;3.15;;;11.30;46.40;;;;;;5056423;28;20253;-89
2022/03/18 10:01:32;;;;;;;5.30;2.77;;;11.60;46.20;;;;;;5022776;28;20188;-87
2022/03/18 10:04:12;;;;;;;5.97;3.20;;;11.70;45.70;;;;;;5037708;28;20423;-88
2022/03/18 10:06:41;;;;;;;7.95;3.25;;;11.60;45.10;;;;;;5039882;28;20455;-87
2022/03/18 10:09:07;;;;;;;18.58;3.47;;;11.90;45.20;;;;;;5055882;28;20431;-88
2022/03/18 10:11:40;;;;;;;5.35;3.33;;;12.00;45.30;;;;;;5055308;28;20173;-88
2022/03/18 10:14:20;;;;;;;11.75;2.90;;;11.90;44.90;;;;;;5038117;28;20173;-88
2022/03/18 10:16:54;;;;;;;5.35;3.20;;;11.90;45.40;;;;;;5058701;28;20197;-87
2022/03/18 10:19:25;;;;;;;6.72;2.95;;;12.00;44.70;;;;;;5040635;28;20177;-88
2022/03/18 10:22:02;;;;;;;8.73;3.05;;;12.10;44.60;;;;;;5060082;28;20245;-88
2022/03/18 10:24:30;;;;;;;9.48;3.65;;;12.20;44.10;;;;;;5040799;28;20184;-88
2022/03/18 10:27:17;;;;;;;4.65;2.50;;;12.20;43.80;;;;;;5043317;28;20270;-88
2022/03/18 10:29:46;;;;;;;5.40;2.58;;;12.20;43.40;;;;;;5048069;28;20287;-87
2022/03/18 10:32:13;;;;;;;5.97;2.92;;;12.30;43.60;;;;;;5048929;28;20195;-88
2022/03/18 10:37:26;;;;;;;15.63;4.25;;;12.60;43.40;;;;;;5078411;28;20224;-89
2022/03/18 10:40:01;;;;;;;4.88;2.92;;;12.60;43.20;;;;;;5044446;28;20212;-89
2022/03/18 10:42:26;;;;;;;9.00;3.10;;;12.60;43.30;;;;;;5043451;28;20192;-89
2022/03/18 10:44:56;;;;;;;7.90;3.50;;;12.70;43.00;;;;;;5022364;28;20206;-89
2022/03/18 10:47:35;;;;;;;8.13;3.75;;;12.70;43.00;;;;;;5038768;28;20197;-90
2022/03/18 10:50:16;;;;;;;6.57;3.30;;;12.70;43.90;;;;;;5055058;28;20220;-90
2022/03/18 10:52:48;;;;;;;13.18;4.13;;;12.80;43.30;;;;;;5041385;28;20165;-90
2022/03/18 10:55:30;;;;;;;11.00;2.97;;;12.80;43.20;;;;;;5040947;28;20292;-89
2022/03/18 10:58:07;;;;;;;8.18;3.30;;;12.80;43.20;;;;;;5058671;28;20161;-89
2022/03/18 11:00:36;;;;;;;7.05;3.15;;;12.90;44.20;;;;;;5040502;28;20340;-89
2022/03/18 11:03:04;;;;;;;6.93;4.07;;;12.90;43.30;;;;;;5041152;28;20181;-89
2022/03/18 11:05:44;;;;;;;6.82;3.40;;;13.00;43.50;;;;;;5046156;28;20295;-89
2022/03/18 11:08:21;;;;;;;8.43;3.42;;;13.10;43.60;;;;;;5050014;28;20652;-89
2022/03/18 11:13:50;;;;;;;5.40;3.40;;;13.20;43.20;;;;;;5039191;28;20170;-89
2022/03/18 11:16:22;;;;;;;19.45;4.07;;;13.30;43.10;;;;;;5004934;28;20201;-85
2022/03/18 11:18:49;;;;;;;8.65;4.55;;;13.20;43.00;;;;;;5021909;28;20182;-85
2022/03/18 11:21:16;;;;;;;5.57;3.42;;;13.30;43.40;;;;;;5022898;28;20190;-86
2022/03/18 11:23:45;;;;;;;7.13;3.88;;;13.50;43.30;;;;;;5023181;28;20178;-86
2022/03/18 11:26:12;;;;;;;8.93;3.58;;;13.40;42.70;;;;;;5023239;28;20225;-86
2022/03/18 11:28:38;;;;;;;8.38;4.15;;;13.60;42.40;;;;;;5045873;28;20552;-88
2022/03/18 11:31:06;;;;;;;15.73;3.83;;;13.60;42.40;;;;;;5043079;28;20268;-90
2022/03/18 11:33:34;;;;;;;6.78;3.47;;;13.60;42.50;;;;;;5019096;28;20428;-89
2022/03/18 11:36:11;;;;;;;5.78;3.72;;;13.60;42.50;;;;;;5022291;28;20290;-90
2022/03/18 11:38:59;;;;;;;6.53;4.00;;;13.70;42.70;;;;;;5019848;28;20204;-89
2022/03/18 11:41:52;;;;;;;6.97;3.45;;;13.70;42.50;;;;;;5019831;28;20182;-91
2022/03/18 11:44:36;;;;;;;8.77;3.00;;;13.70;42.50;;;;;;5037865;28;20197;-90
2022/03/18 11:47:23;;;;;;;6.28;3.20;;;13.60;42.90;;;;;;5019542;28;20194;-90
2022/03/18 11:49:50;;;;;;;7.43;4.10;;;13.60;43.10;;;;;;5019847;28;20178;-90
2022/03/18 11:52:16;;;;;;;3.92;2.90;;;13.80;43.00;;;;;;5025021;28;20173;-90
2022/03/18 11:54:51;;;;;;;5.78;3.47;;;13.80;42.70;;;;;;5058170;28;20255;-90
2022/03/18 11:57:34;;;;;;;11.90;4.50;;;13.80;42.60;;;;;;5041502;28;20262;-90
2022/03/18 12:00:05;;;;;;;5.78;3.70;;;13.80;42.90;;;;;;5041463;28;20181;-90
2022/03/18 12:02:35;;;;;;;8.68;4.18;;;13.80;42.50;;;;;;5061394;28;20158;-90
2022/03/18 12:05:02;;;;;;;4.43;3.50;;;13.90;42.40;;;;;;5055687;28;20235;-88
2022/03/18 12:07:30;;;;;;;8.27;3.83;;;14.00;42.50;;;;;;5054153;28;20713;-91
2022/03/18 12:10:08;;;;;;;5.80;3.15;;;14.10;42.30;;;;;;5043791;28;20201;-89
2022/03/18 12:12:42;;;;;;;6.85;3.88;;;14.20;42.10;;;;;;5039881;28;20173;-90
2022/03/18 12:15:17;;;;;;;7.43;3.75;;;14.30;41.70;;;;;;5040308;28;20192;-90
2022/03/18 12:17:53;;;;;;;6.22;3.70;;;14.50;41.60;;;;;;5061015;28;20157;-90
2022/03/18 12:20:33;;;;;;;3.78;2.80;;;14.40;41.20;;;;;;5046111;28;20175;-89
2022/03/18 12:23:03;;;;;;;6.03;3.70;;;14.40;41.30;;;;;;5047505;28;20256;-90
2022/03/18 12:25:29;;;;;;;9.63;4.38;;;14.50;41.40;;;;;;5045991;28;20208;-90
2022/03/18 12:27:56;;;;;;;7.03;3.90;;;14.50;41.70;;;;;;5065739;28;20189;-89
2022/03/18 12:30:32;;;;;;;8.43;4.85;;;14.60;41.60;;;;;;5048383;28;20169;-90
2022/03/18 12:33:06;;;;;;;9.05;3.47;;;14.60;41.60;;;;;;5058989;28;20309;-90
2022/03/18 12:35:34;;;;;;;4.97;3.65;;;14.70;41.80;;;;;;5041279;28;20272;-90
2022/03/18 12:38:07;;;;;;;7.75;3.90;;;14.80;41.50;;;;;;5041050;28;20272;-90
2022/03/18 12:40:39;;;;;;;5.70;3.65;;;14.70;41.10;;;;;;5038842;28;20177;-89
2022/03/18 12:43:05;;;;;;;4.32;3.08;;;14.90;41.10;;;;;;5039770;28;20185;-90
2022/03/18 12:45:42;;;;;;;9.00;4.63;;;14.70;40.90;;;;;;5041399;28;20606;-90
2022/03/18 12:48:13;;;;;;;8.13;4.00;;;14.80;41.20;;;;;;5057316;28;20284;-90
2022/03/18 12:50:44;;;;;;;10.35;4.88;;;14.70;41.10;;;;;;5022940;28;20561;-90
2022/03/18 12:53:18;;;;;;;13.15;4.30;;;14.80;41.10;;;;;;5028301;28;20237;-90
2022/03/18 12:55:46;;;;;;;11.27;4.00;;;14.90;40.90;;;;;;5024017;28;20715;-90
2022/03/18 12:58:13;;;;;;;10.18;4.03;;;14.80;40.70;;;;;;5022516;28;20193;-90
2022/03/18 13:00:55;;;;;;;5.45;3.45;;;14.80;40.70;;;;;;5018620;28;20177;-90
2022/03/18 13:03:31;;;;;;;9.15;3.95;;;14.90;40.50;;;;;;5018828;28;20268;-91
2022/03/18 13:06:22;;;;;;;3.30;2.80;;;14.90;40.20;;;;;;5018494;28;20212;-90
2022/03/18 13:09:00;;;;;;;5.57;3.15;;;15.00;40.30;;;;;;5022366;28;20173;-90
2022/03/18 13:11:32;;;;;;;6.97;3.17;;;15.10;40.40;;;;;;5037922;28;20178;-90
2022/03/18 13:13:58;;;;;;;4.25;2.83;;;15.10;40.40;;;;;;5037938;28;20188;-89